Time;durP1;ratioP1;P1;durP2;ratioP2;P2;SDS_P1;SDS_P2;PMS_P1;PMS_P2;Temp;Humidity;BMP_temperature;BMP_pressure;BME280_temperature;BME280_humidity;BME280_pressure;Samples;Min_cycle;Max_cycle;Signal;HPM_P1;HPM_P2
2023/04/01 00:02:08;;;;;;;25.50;18.20;;;;;;;10.62;100.00;98705.58;105987;1257;99022;-79
2023/04/01 00:04:54;;;;;;;30.30;20.10;;;;;;;10.60;100.00;98701.05;105906;1257;96622;-79
2023/04/01 00:07:40;;;;;;;26.10;18.30;;;;;;;10.59;100.00;98702.84;105980;1256;96598;-78
2023/04/01 00:10:26;;;;;;;27.60;17.50;;;;;;;10.56;100.00;98702.46;106014;1253;99969;-79
2023/04/01 00:13:12;;;;;;;23.40;18.10;;;;;;;10.54;100.00;98701.48;105912;1254;99101;-78
2023/04/01 00:15:57;;;;;;;26.20;19.10;;;;;;;10.51;100.00;98702.65;105829;1253;97784;-79
2023/04/01 00:18:43;;;;;;;26.00;18.00;;;;;;;10.49;100.00;98702.83;105647;1254;96596;-79
2023/04/01 00:21:29;;;;;;;26.20;18.10;;;;;;;10.50;100.00;98698.78;105889;1256;97127;-78
2023/04/01 00:24:14;;;;;;;24.40;18.30;;;;;;;10.52;100.00;98697.55;106024;1254;100403;-78
2023/04/01 00:27:00;;;;;;;26.80;18.20;;;;;;;10.55;100.00;98696.64;105934;1257;100470;-76
2023/04/01 00:29:47;;;;;;;28.30;18.70;;;;;;;10.55;100.00;98696.76;105941;1258;97838;-78
2023/04/01 00:32:34;;;;;;;25.10;17.30;;;;;;;10.53;100.00;98692.44;105958;1254;96012;-79
2023/04/01 00:35:20;;;;;;;21.90;16.80;;;;;;;10.51;100.00;98684.14;105503;1254;97135;-77
2023/04/01 00:38:06;;;;;;;26.70;18.40;;;;;;;10.53;100.00;98680.41;105388;1254;101311;-77
2023/04/01 00:40:57;;;;;;;22.60;17.10;;;;;;;10.54;100.00;98673.33;105454;1260;99139;-77
2023/04/01 00:43:46;;;;;;;25.40;18.20;;;;;;;10.56;100.00;98667.76;105444;1254;97679;-77
2023/04/01 00:46:31;;;;;;;24.10;17.50;;;;;;;10.57;100.00;98667.82;106731;1256;96738;-77
2023/04/01 00:49:20;;;;;;;23.10;17.10;;;;;;;10.57;100.00;98673.81;105477;1253;96617;-76
2023/04/01 00:52:08;;;;;;;26.60;17.40;;;;;;;10.57;100.00;98673.45;105539;1256;100090;-76
2023/04/01 00:54:59;;;;;;;24.30;16.90;;;;;;;10.58;100.00;98674.44;105477;1253;100323;-77
2023/04/01 00:57:46;;;;;;;29.40;18.80;;;;;;;10.59;100.00;98674.83;106006;1254;97734;-77
2023/04/01 01:00:33;;;;;;;26.60;18.20;;;;;;;10.58;100.00;98675.79;105532;1257;97045;-76
2023/04/01 01:03:18;;;;;;;24.20;18.50;;;;;;;10.55;100.00;98674.68;105584;1259;97065;-76
2023/04/01 01:06:50;;;;;;;23.50;18.40;;;;;;;10.51;100.00;98674.51;105429;1256;100813;-76
2023/04/01 01:09:52;;;;;;;28.20;20.40;;;;;;;10.48;100.00;98674.56;105380;1253;99123;-77
2023/04/01 01:12:59;;;;;;;30.90;21.30;;;;;;;10.47;100.00;98672.23;105353;1254;97710;-76
2023/04/01 01:16:06;;;;;;;31.70;21.30;;;;;;;10.45;100.00;98672.35;105566;1254;96519;-77
2023/04/01 01:19:05;;;;;;;29.00;22.10;;;;;;;10.44;100.00;98669.77;105473;1254;96888;-76
2023/04/01 01:22:18;;;;;;;33.30;23.30;;;;;;;10.45;100.00;98667.17;105355;1254;101167;-77
2023/04/01 01:25:26;;;;;;;33.10;24.00;;;;;;;10.44;100.00;98670.97;105520;1257;99790;-77
2023/04/01 01:28:21;;;;;;;34.30;23.90;;;;;;;10.44;100.00;98671.02;105319;1254;97837;-76
2023/04/01 01:31:28;;;;;;;35.80;25.20;;;;;;;10.43;100.00;98666.39;105501;1261;97358;-76
2023/04/01 01:34:23;;;;;;;34.60;24.60;;;;;;;10.41;100.00;98664.16;105491;1253;96571;-77
2023/04/01 01:37:14;;;;;;;37.90;26.10;;;;;;;10.42;100.00;98667.41;105495;1257;101139;-76
2023/04/01 01:40:05;;;;;;;37.70;25.70;;;;;;;10.42;100.00;98670.22;105651;1253;99158;-76
2023/04/01 01:42:58;;;;;;;35.60;27.10;;;;;;;10.42;100.00;98670.64;105486;1254;98955;-76
2023/04/01 01:45:50;;;;;;;37.00;26.00;;;;;;;10.43;100.00;98671.20;105590;1254;97199;-77
2023/04/01 01:48:37;;;;;;;36.20;27.30;;;;;;;10.43;100.00;98670.41;105631;1257;96583;-77
2023/04/01 01:51:24;;;;;;;39.80;27.80;;;;;;;10.45;100.00;98669.16;106291;1256;99937;-77
2023/04/01 01:54:15;;;;;;;38.00;26.80;;;;;;;10.46;100.00;98662.83;107030;1253;99407;-77
2023/04/01 01:57:09;;;;;;;42.10;28.70;;;;;;;10.48;100.00;98656.65;105576;1259;98974;-77
2023/04/01 02:00:13;;;;;;;34.20;26.10;;;;;;;10.48;100.00;98653.17;105716;1254;96734;-77
2023/04/01 02:03:00;;;;;;;33.30;24.80;;;;;;;10.48;100.00;98650.06;105703;1253;97076;-77
2023/04/01 02:05:46;;;;;;;30.80;23.80;;;;;;;10.48;100.00;98649.58;105606;1254;100083;-78
2023/04/01 02:08:43;;;;;;;33.90;24.10;;;;;;;10.46;100.00;98647.52;105528;1254;100128;-78
2023/04/01 02:11:34;;;;;;;28.90;22.00;;;;;;;10.43;100.00;98641.71;105442;1253;98567;-78
2023/04/01 02:14:25;;;;;;;32.70;22.30;;;;;;;10.43;100.00;98642.35;105563;1254;97246;-78
2023/04/01 02:17:26;;;;;;;27.40;20.60;;;;;;;10.43;100.00;98643.33;105717;1259;96627;-77
2023/04/01 02:20:17;;;;;;;34.10;23.00;;;;;;;10.43;100.00;98645.09;105712;1259;100018;-77
2023/04/01 02:23:04;;;;;;;26.60;20.90;;;;;;;10.42;100.00;98644.36;105602;1259;99080;-76
2023/04/01 02:25:50;;;;;;;29.40;21.30;;;;;;;10.42;100.00;98643.67;105415;1256;97763;-77
2023/04/01 02:28:39;;;;;;;27.60;20.20;;;;;;;10.43;100.00;98634.26;105637;1254;96713;-78
2023/04/01 02:31:25;;;;;;;32.80;22.60;;;;;;;10.43;100.00;98636.35;105610;1258;96495;-77
2023/04/01 02:34:11;;;;;;;33.40;25.40;;;;;;;10.43;100.00;98636.70;105531;1254;100114;-77
2023/04/01 02:36:57;;;;;;;31.90;24.60;;;;;;;10.42;100.00;98639.42;105548;1257;99539;-77
2023/04/01 02:39:43;;;;;;;31.40;23.60;;;;;;;10.38;100.00;98642.23;105559;1253;97741;-77
2023/04/01 02:42:28;;;;;;;34.40;25.00;;;;;;;10.33;100.00;98642.96;105670;1258;96587;-77
2023/04/01 02:45:14;;;;;;;36.40;25.20;;;;;;;10.30;100.00;98646.75;105508;1259;98328;-77
2023/04/01 02:48:00;;;;;;;30.40;22.10;;;;;;;10.27;100.00;98647.64;105595;1257;99984;-78
2023/04/01 02:50:46;;;;;;;33.20;20.90;;;;;;;10.25;100.00;98647.27;105598;1257;100945;-77
2023/04/01 02:53:31;;;;;;;30.10;20.50;;;;;;;10.24;100.00;98653.50;105436;1253;97728;-77
2023/04/01 02:56:19;;;;;;;26.60;19.70;;;;;;;10.21;100.00;98655.80;105519;1254;97871;-76
2023/04/01 02:59:05;;;;;;;27.80;18.20;;;;;;;10.16;100.00;98652.80;105534;1254;96753;-77
2023/04/01 03:01:50;;;;;;;26.90;18.10;;;;;;;10.12;100.00;98655.21;105641;1253;101281;-77
2023/04/01 03:04:36;;;;;;;25.00;18.70;;;;;;;10.09;100.00;98658.38;105466;1254;99067;-77
2023/04/01 03:07:21;;;;;;;24.40;17.40;;;;;;;10.06;100.00;98658.03;105543;1254;97733;-78
2023/04/01 03:10:08;;;;;;;25.70;17.90;;;;;;;10.04;100.00;98660.45;105521;1257;96636;-77
2023/04/01 03:12:54;;;;;;;26.00;18.20;;;;;;;10.00;100.00;98663.80;105454;1253;97267;-77
2023/04/01 03:15:39;;;;;;;22.30;16.10;;;;;;;9.95;100.00;98666.80;105419;1259;99986;-77
2023/04/01 03:18:25;;;;;;;23.20;17.20;;;;;;;9.92;100.00;98666.03;105757;1254;100736;-76
2023/04/01 03:21:17;;;;;;;19.80;15.70;;;;;;;9.89;100.00;98668.84;105560;1254;97709;-76
2023/04/01 03:24:02;;;;;;;25.10;15.90;;;;;;;9.88;100.00;98668.16;105488;1258;97824;-76
2023/04/01 03:26:48;;;;;;;22.30;16.90;;;;;;;9.85;100.00;98665.57;105507;1253;96533;-76
2023/04/01 03:29:34;;;;;;;22.10;15.50;;;;;;;9.83;100.00;98663.96;105527;1253;100003;-77
2023/04/01 03:32:20;;;;;;;22.40;15.50;;;;;;;9.81;100.00;98663.21;105517;1257;99130;-77
2023/04/01 03:35:06;;;;;;;19.80;14.80;;;;;;;9.79;100.00;98665.63;105269;1254;98916;-76
2023/04/01 03:37:52;;;;;;;21.60;15.80;;;;;;;9.77;100.00;98665.68;105538;1258;96594;-76
2023/04/01 03:40:42;;;;;;;23.10;15.90;;;;;;;9.77;100.00;98668.98;105324;1254;97110;-75
2023/04/01 03:43:28;;;;;;;21.50;15.50;;;;;;;9.76;100.00;98672.66;105409;1259;100044;-75
2023/04/01 03:46:20;;;;;;;21.50;15.80;;;;;;;9.74;100.00;98679.03;105514;1258;99090;-76
2023/04/01 03:49:11;;;;;;;19.80;14.80;;;;;;;9.71;100.00;98679.80;105631;1257;97750;-77
2023/04/01 03:51:57;;;;;;;18.90;13.70;;;;;;;9.68;100.00;98682.40;105548;1255;97996;-77
2023/04/01 03:54:42;;;;;;;18.10;14.50;;;;;;;9.65;100.00;98684.79;105548;1252;97157;-79
2023/04/01 03:57:31;;;;;;;19.30;14.00;;;;;;;9.63;100.00;98684.98;105782;1254;100055;-78
2023/04/01 04:00:17;;;;;;;18.30;13.30;;;;;;;9.58;100.00;98687.95;105509;1257;99087;-77
2023/04/01 04:03:03;;;;;;;17.80;13.90;;;;;;;9.55;100.00;98690.11;105597;1253;97784;-77
2023/04/01 04:05:51;;;;;;;16.70;12.80;;;;;;;9.54;100.00;98693.09;106225;1254;96510;-77
2023/04/01 04:08:38;;;;;;;18.50;13.90;;;;;;;9.52;100.00;98699.19;105562;1256;97140;-76
2023/04/01 04:11:23;;;;;;;17.70;12.90;;;;;;;9.52;100.00;98701.48;105385;1256;101244;-75
2023/04/01 04:14:10;;;;;;;19.60;13.30;;;;;;;9.52;100.00;98702.19;105449;1257;100483;-77
2023/04/01 04:16:56;;;;;;;16.10;12.50;;;;;;;9.54;100.00;98707.02;105621;1257;98366;-77
2023/04/01 04:19:42;;;;;;;17.80;12.90;;;;;;;9.54;100.00;98708.05;105602;1254;97208;-77
2023/04/01 04:22:28;;;;;;;20.60;12.80;;;;;;;9.53;100.00;98709.59;105709;1256;97126;-77
2023/04/01 04:25:14;;;;;;;16.60;12.50;;;;;;;9.53;100.00;98710.90;105575;1254;100029;-77
2023/04/01 04:28:00;;;;;;;16.40;13.00;;;;;;;9.53;100.00;98712.13;105559;1254;99738;-77
2023/04/01 04:30:45;;;;;;;16.80;11.00;;;;;;;9.54;100.00;98717.55;105492;1256;97899;-76
2023/04/01 04:33:31;;;;;;;18.00;12.30;;;;;;;9.52;100.00;98723.65;105492;1259;96579;-78
2023/04/01 04:36:17;;;;;;;13.20;11.30;;;;;;;9.51;100.00;98724.55;105436;1253;97144;-77
2023/04/01 04:39:04;;;;;;;17.20;12.10;;;;;;;9.50;100.00;98721.89;105526;1254;99994;-76
2023/04/01 04:41:50;;;;;;;17.00;12.30;;;;;;;9.49;100.00;98719.88;105465;1257;99181;-79
2023/04/01 04:44:36;;;;;;;16.00;11.20;;;;;;;9.49;100.00;98721.64;105576;1256;99002;-76
2023/04/01 04:47:21;;;;;;;17.00;12.30;;;;;;;9.49;100.00;98723.08;105467;1260;97171;-76
2023/04/01 04:50:08;;;;;;;17.30;12.30;;;;;;;9.49;100.00;98722.45;105486;1259;97947;-76
2023/04/01 04:52:56;;;;;;;16.30;12.50;;;;;;;9.49;100.00;98723.16;105698;1256;99960;-77
2023/04/01 04:55:44;;;;;;;16.20;12.10;;;;;;;9.50;100.00;98723.31;105387;1254;99235;-77
2023/04/01 04:58:38;;;;;;;16.90;12.90;;;;;;;9.51;100.00;98724.42;105449;1254;98886;-76
2023/04/01 05:01:25;;;;;;;16.60;12.70;;;;;;;9.52;100.00;98726.86;105513;1254;96571;-77
2023/04/01 05:04:10;;;;;;;17.30;12.50;;;;;;;9.53;100.00;98725.83;105627;1254;98216;-77
2023/04/01 05:06:56;;;;;;;17.80;12.60;;;;;;;9.54;100.00;98723.50;105446;1254;101265;-76
2023/04/01 05:09:42;;;;;;;16.50;13.80;;;;;;;9.55;100.00;98724.65;105664;1256;99073;-77
2023/04/01 05:12:28;;;;;;;16.20;13.40;;;;;;;9.55;100.00;98723.95;105442;1256;97796;-77
2023/04/01 05:15:17;;;;;;;17.60;13.00;;;;;;;9.56;100.00;98723.61;105858;1253;96599;-77
2023/04/01 05:18:03;;;;;;;14.10;12.20;;;;;;;9.58;100.00;98725.23;105938;1256;96853;-79
2023/04/01 05:20:51;;;;;;;15.70;12.50;;;;;;;9.57;100.00;98729.96;105653;1253;99969;-75
2023/04/01 05:23:37;;;;;;;15.70;12.20;;;;;;;9.58;100.00;98732.38;105489;1257;99095;-76
2023/04/01 05:26:23;;;;;;;14.60;11.30;;;;;;;9.60;100.00;98736.53;105350;1273;99720;-76
2023/04/01 05:29:09;;;;;;;24.80;13.30;;;;;;;9.62;100.00;98735.38;105430;1259;96590;-78
2023/04/01 05:31:55;;;;;;;16.40;13.20;;;;;;;9.64;100.00;98735.47;105415;1254;97919;-76
2023/04/01 05:34:41;;;;;;;20.50;14.00;;;;;;;9.65;100.00;98732.95;105631;1256;101308;-76
2023/04/01 05:37:27;;;;;;;17.40;13.30;;;;;;;9.67;100.00;98733.81;105485;1256;100376;-76
2023/04/01 05:40:12;;;;;;;16.00;12.60;;;;;;;9.71;100.00;98734.77;105506;1253;97708;-77
2023/04/01 05:43:00;;;;;;;13.20;10.70;;;;;;;9.74;100.00;98733.40;105446;1253;96621;-78
2023/04/01 05:45:45;;;;;;;13.80;10.50;;;;;;;9.75;100.00;98732.14;105588;1253;97038;-77
2023/04/01 05:48:33;;;;;;;16.80;13.20;;;;;;;9.77;100.00;98732.15;105432;1256;100887;-75
2023/04/01 05:51:19;;;;;;;15.90;13.20;;;;;;;9.83;100.00;98733.61;105631;1254;100871;-77
2023/04/01 05:54:06;;;;;;;13.90;11.20;;;;;;;9.88;100.00;98734.06;105465;1259;98249;-76
2023/04/01 05:56:51;;;;;;;14.70;13.10;;;;;;;9.92;100.00;98735.77;105436;1259;97256;-77
2023/04/01 05:59:37;;;;;;;11.20;8.60;;;;;;;9.97;100.00;98735.54;105387;1257;97112;-77
2023/04/01 06:02:23;;;;;;;10.20;7.00;;;;;;;10.02;100.00;98733.61;105476;1259;100666;-76
2023/04/01 06:05:17;;;;;;;8.70;7.00;;;;;;;10.06;100.00;98738.45;105487;1257;100119;-78
2023/04/01 06:08:10;;;;;;;10.50;8.10;;;;;;;10.11;100.00;98737.46;105467;1253;98693;-76
2023/04/01 06:11:22;;;;;;;10.10;8.60;;;;;;;10.16;100.00;98732.49;105357;1259;97203;-76
2023/04/01 06:14:32;;;;;;;11.90;9.30;;;;;;;10.17;100.00;98730.66;105278;1259;97100;-76
2023/04/01 06:17:30;;;;;;;13.10;10.40;;;;;;;10.19;100.00;98736.16;105679;1256;100105;-78
2023/04/01 06:20:37;;;;;;;12.50;10.20;;;;;;;10.19;100.00;98739.70;105469;1254;99604;-76
2023/04/01 06:23:50;;;;;;;13.00;10.80;;;;;;;10.17;100.00;98740.88;105431;1259;98947;-76
2023/04/01 06:26:44;;;;;;;14.50;11.80;;;;;;;10.15;100.00;98742.22;105278;1258;96621;-76
2023/04/01 06:30:04;;;;;;;16.00;13.00;;;;;;;10.12;100.00;98744.60;105508;1254;97118;-76
2023/04/01 06:32:58;;;;;;;18.20;14.80;;;;;;;10.11;100.00;98746.02;105599;1254;100902;-76
2023/04/01 06:36:06;;;;;;;20.80;17.20;;;;;;;10.13;100.00;98748.39;105508;1254;99136;-77
2023/04/01 06:39:08;;;;;;;20.20;16.50;;;;;;;10.17;100.00;98747.83;105653;1254;97763;-78
2023/04/01 06:41:57;;;;;;;21.00;17.10;;;;;;;10.20;100.00;98745.39;105398;1259;96944;-77
2023/04/01 06:45:03;;;;;;;28.60;20.20;;;;;;;10.21;100.00;98743.65;105508;1254;96514;-77
2023/04/01 06:48:32;;;;;;;25.70;20.50;;;;;;;10.24;100.00;98744.70;105466;1257;100017;-77
2023/04/01 06:51:54;;;;;;;23.70;19.60;;;;;;;10.29;100.00;98746.49;105519;1253;99139;-76
2023/04/01 06:55:05;;;;;;;29.10;20.70;;;;;;;10.30;100.00;98746.56;105479;1256;97715;-75
2023/04/01 06:58:21;;;;;;;;;;;;;;;10.33;100.00;98746.54;105569;1256;97273;-77
2023/04/01 07:01:14;;;;;;;27.60;20.50;;;;;;;10.36;100.00;98748.36;105397;1254;96537;-77
2023/04/01 07:04:06;;;;;;;27.50;21.40;;;;;;;10.36;100.00;98747.54;105353;1254;100003;-76
2023/04/01 07:07:14;;;;;;;27.90;21.60;;;;;;;10.38;100.00;98749.88;105515;1256;100305;-76
2023/04/01 07:10:17;;;;;;;31.70;22.40;;;;;;;10.37;100.00;98750.44;105472;1258;97703;-77
2023/04/01 07:13:34;;;;;;;30.20;23.10;;;;;;;10.34;100.00;98754.27;105448;1258;96595;-76
2023/04/01 07:16:32;;;;;;;32.60;23.10;;;;;;;10.32;100.00;98757.48;105395;1259;97054;-76
2023/04/01 07:19:27;;;;;;;27.40;21.40;;;;;;;10.32;100.00;98761.82;105388;1258;99989;-77
2023/04/01 07:22:39;;;;;;;24.90;20.00;;;;;;;10.31;100.00;98758.97;105437;1260;100403;-77
2023/04/01 07:25:47;;;;;;;26.80;19.70;;;;;;;10.33;100.00;98757.08;105408;1254;98742;-76
2023/04/01 07:28:57;;;;;;;27.30;19.60;;;;;;;10.38;100.00;98758.05;105519;1258;96719;-77
2023/04/01 07:32:21;;;;;;;27.80;21.00;;;;;;;10.39;100.00;98760.98;105243;1259;97253;-77
2023/04/01 07:35:16;;;;;;;28.50;21.60;;;;;;;10.39;100.00;98761.19;105409;1257;100027;-77
2023/04/01 07:38:15;;;;;;;27.20;20.10;;;;;;;10.39;100.00;98762.89;105503;1256;100324;-77
2023/04/01 07:41:16;;;;;;;28.40;21.40;;;;;;;10.41;100.00;98765.69;105613;1254;97707;-78
2023/04/01 07:44:20;;;;;;;26.10;19.90;;;;;;;10.46;100.00;98762.86;105517;1254;96593;-76
2023/04/01 07:47:25;;;;;;;23.70;18.20;;;;;;;10.48;100.00;98765.95;105650;1259;97257;-76
2023/04/01 07:50:27;;;;;;;24.40;19.30;;;;;;;10.47;100.00;98761.93;107184;1254;99986;-76
2023/04/01 07:53:27;;;;;;;25.30;17.60;;;;;;;10.49;100.00;98764.49;105495;1254;99089;-76
2023/04/01 07:56:30;;;;;;;27.10;17.70;;;;;;;10.48;100.00;98766.56;105443;1253;97773;-76
2023/04/01 07:59:34;;;;;;;19.70;16.90;;;;;;;10.46;100.00;98768.61;105491;1254;97871;-76
2023/04/01 08:02:44;;;;;;;22.60;17.20;;;;;;;10.48;100.00;98771.30;105468;1269;97096;-76
2023/04/01 08:05:49;;;;;;;22.90;16.00;;;;;;;10.51;100.00;98769.08;105474;1257;101365;-77
2023/04/01 08:09:00;;;;;;;20.60;14.20;;;;;;;10.50;100.00;98772.71;105709;1254;100701;-77
2023/04/01 08:12:32;;;;;;;17.60;14.10;;;;;;;10.47;100.00;98775.10;105548;1254;99494;-77
2023/04/01 08:15:27;;;;;;;17.10;13.60;;;;;;;10.44;100.00;98778.24;105597;1254;96541;-77
2023/04/01 08:18:52;;;;;;;18.70;14.10;;;;;;;10.43;100.00;98779.77;105667;1257;97150;-77
2023/04/01 08:21:43;;;;;;;21.10;15.30;;;;;;;10.44;100.00;98785.08;105648;1254;99988;-78
2023/04/01 08:24:43;;;;;;;18.20;15.20;;;;;;;10.42;100.00;98786.55;105609;1256;100331;-77
2023/04/01 08:27:37;;;;;;;19.60;15.00;;;;;;;10.43;100.00;98790.20;105490;1253;98939;-76
2023/04/01 08:30:29;;;;;;;21.00;17.50;;;;;;;10.42;100.00;98794.34;105656;1254;96662;-77
2023/04/01 08:33:26;;;;;;;64.50;41.00;;;;;;;10.39;100.00;98794.44;105583;1258;97051;-78
2023/04/01 08:36:22;;;;;;;155.40;95.50;;;;;;;10.38;100.00;98795.27;105376;1259;101223;-78
2023/04/01 08:39:28;;;;;;;56.90;44.40;;;;;;;10.39;100.00;98794.74;105735;1253;99051;-77
2023/04/01 08:42:55;;;;;;;35.00;30.30;;;;;;;10.41;100.00;98791.06;105635;1259;97705;-76
2023/04/01 08:45:59;;;;;;;27.50;24.50;;;;;;;10.45;100.00;98796.35;105698;1259;97083;-77
2023/04/01 08:49:06;;;;;;;17.40;13.40;;;;;;;10.52;100.00;98797.67;105416;1257;97096;-76
2023/04/01 08:52:04;;;;;;;12.80;10.30;;;;;;;10.60;100.00;98793.63;105584;1256;100946;-76
2023/04/01 08:55:22;;;;;;;10.90;8.80;;;;;;;10.67;100.00;98794.48;105956;1256;100656;-77
2023/04/01 08:58:48;;;;;;;40.20;21.20;;;;;;;10.77;100.00;98793.77;107668;1253;98810;-77
2023/04/01 09:01:51;;;;;;;39.10;21.90;;;;;;;10.87;100.00;98798.94;105428;1254;96618;-76
2023/04/01 09:05:00;;;;;;;18.80;13.80;;;;;;;10.98;100.00;98797.91;105526;1254;97879;-77
2023/04/01 09:08:00;;;;;;;33.30;19.10;;;;;;;11.08;100.00;98797.70;105345;1259;101251;-76
2023/04/01 09:11:04;;;;;;;8.30;6.60;;;;;;;11.20;100.00;98799.96;105499;1256;100315;-76
2023/04/01 09:14:34;;;;;;;44.70;27.00;;;;;;;11.28;100.00;98806.84;108579;1252;99452;-76
2023/04/01 09:18:20;;;;;;;14.90;12.00;;;;;;;11.36;100.00;98804.98;105896;1254;97202;-77
2023/04/01 09:21:24;;;;;;;12.20;9.10;;;;;;;11.44;100.00;98804.52;105653;1259;96602;-76
2023/04/01 09:24:25;;;;;;;29.20;16.60;;;;;;;11.41;100.00;98805.05;105404;1257;99956;-77
2023/04/01 09:27:44;;;;;;;43.50;23.10;;;;;;;11.37;100.00;98808.93;105566;1253;100767;-77
2023/04/01 09:30:48;;;;;;;70.60;40.20;;;;;;;11.34;100.00;98813.25;105443;1254;98382;-77
2023/04/01 09:34:03;;;;;;;36.80;21.20;;;;;;;11.32;100.00;98815.98;105553;1257;96536;-77
2023/04/01 09:37:31;;;;;;;47.30;36.40;;;;;;;11.26;100.00;98813.77;105408;1260;97147;-75
2023/04/01 09:40:41;;;;;;;42.40;32.30;;;;;;;11.17;100.00;98816.55;105791;1253;100078;-78
2023/04/01 09:43:48;;;;;;;21.30;15.60;;;;;;;11.07;100.00;98818.75;105713;1258;99328;-77
2023/04/01 09:47:06;;;;;;;15.50;10.90;;;;;;;10.99;100.00;98825.00;105675;1256;99461;-78
2023/04/01 09:50:26;;;;;;;10.70;7.60;;;;;;;10.94;100.00;98825.30;105814;1259;97291;-79
2023/04/01 09:53:12;;;;;;;9.00;7.00;;;;;;;10.91;100.00;98825.60;105814;1254;97133;-79
2023/04/01 09:56:36;;;;;;;11.00;9.80;;;;;;;10.89;100.00;98823.95;105830;1254;100028;-78
2023/04/01 09:59:46;;;;;;;13.90;10.80;;;;;;;10.86;100.00;98825.49;105846;1259;99073;-79
2023/04/01 10:02:51;;;;;;;15.10;10.70;;;;;;;10.87;100.00;98823.06;105932;1254;97728;-79
2023/04/01 10:06:17;;;;;;;12.90;10.10;;;;;;;10.91;100.00;98822.39;105827;1254;96766;-78
2023/04/01 10:09:23;;;;;;;12.10;10.30;;;;;;;10.92;100.00;98823.02;105881;1254;98274;-78
2023/04/01 10:12:30;;;;;;;14.00;10.40;;;;;;;10.93;100.00;98821.44;105729;1254;99990;-78
2023/04/01 10:16:03;;;;;;;17.70;12.00;;;;;;;10.99;100.00;98821.45;105867;1259;99092;-79
2023/04/01 10:19:14;;;;;;;16.30;12.80;;;;;;;11.08;100.00;98821.94;105456;1256;99074;-75
2023/04/01 10:22:35;;;;;;;16.60;13.40;;;;;;;11.16;100.00;98823.71;105496;1253;96693;-76
2023/04/01 10:25:42;;;;;;;18.60;14.60;;;;;;;11.19;100.00;98827.83;105525;1253;97820;-76
2023/04/01 10:28:53;;;;;;;30.70;20.90;;;;;;;11.21;100.00;98830.43;105606;1258;100491;-76
2023/04/01 10:32:21;;;;;;;15.50;12.80;;;;;;;11.28;100.00;98827.38;105275;1256;100309;-77
2023/04/01 10:35:41;;;;;;;14.20;11.10;;;;;;;11.33;100.00;98827.48;105252;1259;97795;-76
2023/04/01 10:39:04;;;;;;;15.20;11.00;;;;;;;11.38;100.00;98828.84;105200;1260;96612;-77
2023/04/01 10:42:27;;;;;;;13.90;11.20;;;;;;;11.40;100.00;98830.86;105325;1258;97136;-77
2023/04/01 10:45:48;;;;;;;14.10;11.50;;;;;;;11.48;100.00;98826.74;104969;1266;99979;-76
2023/04/01 10:49:12;;;;;;;15.90;11.00;;;;;;;11.57;100.00;98820.88;105258;1260;99973;-76
2023/04/01 10:52:35;;;;;;;13.70;11.50;;;;;;;11.67;100.00;98821.33;105303;1262;98997;-77
2023/04/01 10:56:02;;;;;;;11.50;8.80;;;;;;;11.69;100.00;98821.71;105333;1260;96703;-75
2023/04/01 10:59:34;;;;;;;13.10;10.30;;;;;;;11.74;100.00;98820.45;105303;1260;97185;-76
2023/04/01 11:03:22;;;;;;;9.90;8.60;;;;;;;11.81;100.00;98822.70;105162;1268;99988;-77
2023/04/01 11:07:05;;;;;;;10.50;8.70;;;;;;;11.86;100.00;98824.85;105227;1262;99714;-77
2023/04/01 11:09:50;;;;;;;10.70;9.20;;;;;;;11.92;100.00;98826.56;105368;1261;98762;-77
2023/04/01 11:13:16;;;;;;;9.00;7.60;;;;;;;11.96;99.94;98829.16;105279;1263;97187;-78
2023/04/01 11:16:13;;;;;;;7.80;6.60;;;;;;;11.97;99.84;98830.33;105358;1257;97138;-78
2023/04/01 11:19:15;;;;;;;7.40;5.70;;;;;;;11.97;98.94;98835.05;105282;1262;102266;-78
2023/04/01 11:22:21;;;;;;;;;;;;;;;11.93;98.78;98836.86;105283;1257;99303;-78
2023/04/01 11:25:55;;;;;;;5.60;5.00;;;;;;;11.94;99.02;98833.73;105251;1259;97734;-76
2023/04/01 11:29:10;;;;;;;6.30;4.90;;;;;;;11.96;98.88;98834.70;105285;1261;96585;-76
2023/04/01 11:32:16;;;;;;;6.00;5.20;;;;;;;11.99;98.58;98837.39;105663;1257;97501;-76
2023/04/01 11:35:04;;;;;;;8.20;6.10;;;;;;;12.01;98.47;98833.30;105388;1259;99985;-76
2023/04/01 11:38:17;;;;;;;8.80;5.30;;;;;;;12.02;98.25;98833.65;105459;1263;99067;-77
2023/04/01 11:41:18;;;;;;;7.00;6.30;;;;;;;12.02;97.63;98837.45;105376;1259;97725;-77
2023/04/01 11:44:35;;;;;;;5.70;4.60;;;;;;;12.00;97.19;98834.52;105362;1259;96601;-77
2023/04/01 11:47:51;;;;;;;5.40;4.70;;;;;;;11.99;97.19;98834.61;105707;1261;97103;-77
2023/04/01 11:50:56;;;;;;;7.70;4.80;;;;;;;12.02;97.67;98837.58;105650;1259;100933;-77
2023/04/01 11:53:52;;;;;;;8.60;5.80;;;;;;;12.07;97.69;98841.05;105653;1257;99072;-76
2023/04/01 11:56:54;;;;;;;9.10;5.20;;;;;;;12.09;97.26;98839.90;105564;1254;98987;-79
2023/04/01 11:59:52;;;;;;;4.60;3.60;;;;;;;12.06;96.52;98846.55;105830;1260;96619;-80
2023/04/01 12:03:08;;;;;;;3.20;2.80;;;;;;;12.03;96.27;98849.61;105797;1260;96641;-78
2023/04/01 12:06:18;;;;;;;2.10;1.80;;;;;;;12.00;96.08;98853.89;105609;1259;100026;-77
2023/04/01 12:09:07;;;;;;;3.00;2.40;;;;;;;11.95;96.00;98857.01;105523;1267;99057;-76
2023/04/01 12:12:17;;;;;;;5.70;3.70;;;;;;;11.95;96.39;98857.48;105638;1259;98697;-78
2023/04/01 12:15:22;;;;;;;6.30;3.60;;;;;;;11.99;97.07;98858.00;105696;1254;97789;-78
2023/04/01 12:18:33;;;;;;;2.50;1.70;;;;;;;12.01;96.62;98858.96;105580;1267;96698;-76
2023/04/01 12:21:32;;;;;;;2.00;1.80;;;;;;;12.02;96.46;98856.14;105515;1260;101172;-76
2023/04/01 12:24:34;;;;;;;3.20;2.40;;;;;;;12.05;96.79;98855.39;105678;1257;100278;-76
2023/04/01 12:27:35;;;;;;;2.60;2.10;;;;;;;12.07;96.73;98856.66;105489;1258;98611;-77
2023/04/01 12:30:39;;;;;;;2.50;2.20;;;;;;;12.11;97.48;98855.17;105436;1261;97040;-76
2023/04/01 12:33:41;;;;;;;1.70;1.50;;;;;;;12.19;97.35;98856.04;105536;1257;96485;-76
2023/04/01 12:37:00;;;;;;;1.90;1.50;;;;;;;12.23;96.83;98855.48;105514;1260;100559;-76
2023/04/01 12:40:04;;;;;;;1.80;1.50;;;;;;;12.28;97.02;98861.27;105305;1270;99675;-78
2023/04/01 12:42:59;;;;;;;1.40;1.20;;;;;;;12.36;96.98;98860.79;105467;1256;97718;-77
2023/04/01 12:45:57;;;;;;;0.80;0.70;;;;;;;12.38;95.98;98864.25;105542;1257;96533;-77
2023/04/01 12:48:51;;;;;;;1.60;1.00;;;;;;;12.34;95.75;98866.16;105519;1267;96486;-76
2023/04/01 12:52:03;;;;;;;1.40;1.30;;;;;;;12.29;96.39;98870.95;105448;1254;100783;-75
2023/04/01 12:55:00;;;;;;;7.30;4.90;;;;;;;12.20;96.33;98877.54;105518;1254;99308;-77
2023/04/01 12:58:18;;;;;;;3.10;1.90;;;;;;;12.00;95.83;98884.27;105525;1255;97765;-77
2023/04/01 13:01:27;;;;;;;5.40;3.80;;;;;;;11.86;96.54;98887.19;105594;1254;96603;-78
2023/04/01 13:04:30;;;;;;;2.60;1.80;;;;;;;11.76;96.84;98892.88;105478;1255;97222;-77
2023/04/01 13:07:18;;;;;;;1.50;1.40;;;;;;;11.60;96.80;98894.48;105555;1266;100632;-76
2023/04/01 13:10:30;;;;;;;1.30;1.20;;;;;;;11.51;97.51;98900.73;105481;1257;100355;-77
2023/04/01 13:13:31;;;;;;;1.70;1.40;;;;;;;11.46;97.39;98901.45;105562;1257;97660;-77
2023/04/01 13:16:31;;;;;;;3.10;1.40;;;;;;;11.46;98.09;98906.55;105510;1260;97866;-77
2023/04/01 13:19:48;;;;;;;2.40;1.70;;;;;;;11.47;98.28;98911.20;105651;1254;96567;-78
2023/04/01 13:22:55;;;;;;;1.90;1.50;;;;;;;11.51;98.45;98913.05;105924;1260;101381;-78
2023/04/01 13:25:47;;;;;;;2.00;1.70;;;;;;;11.58;98.66;98917.72;105560;1259;99213;-77
2023/04/01 13:29:01;;;;;;;1.70;1.50;;;;;;;11.62;98.68;98919.38;105895;1257;98938;-78
2023/04/01 13:32:03;;;;;;;3.20;1.80;;;;;;;11.57;97.79;98922.25;105536;1266;96515;-77